Station History

Weather Underground - logo

Station Historical Data
Daily Summary for January 12, 2018 Units:  English    Metric   Both
« Previous Day
Next Day »
Daily Weekly Monthly Yearly Custom
  High: Low: Average:
Temperature: TemperatureF °F 46.6 °F 53.8 °F
Dew Point: DewpointF °F 45.2 °F 50.5 °F
Humidity: Humidity % 75 % 88 %
Wind Speed: WindSpeedMPH mph 0.0 mph 0.7 mph
Wind Gust: WindSpeedGustMPH mph - -
Wind:- - SW
Pressure: PressureIn in 30.29 in -
Precipitation: 0.00 in    
Historical Graphs
 
 
Tabular Data for January 12, 2018
Time Temperature Dew Point Pressure Wind Wind Speed Wind Gust Humidity Rainfall Rate (Hourly)
TemperatureF °F DewpointF °F PressureIn in Calm     Humidity % HourlyPrecipIn in
00:02 47.1 °F 45.7 °F 30.32 in Calm     95 % 0.00 in
00:10 47.2 °F 45.8 °F 30.32 in Calm     95 % 0.00 in
00:22 47.0 °F 45.6 °F 30.32 in Calm     95 % 0.00 in
00:42 46.7 °F 45.3 °F 30.33 in Calm     95 % 0.00 in
00:56 46.6 °F 45.2 °F 30.33 in Calm     95 % 0.00 in
01:09 47.7 °F 46.6 °F 30.33 in Calm     96 % 0.00 in
01:27 48.6 °F 47.5 °F 30.33 in Calm     96 % 0.00 in
01:37 49.0 °F 47.9 °F 30.33 in Calm     96 % 0.00 in
01:45 49.3 °F 48.2 °F 30.33 in Calm     96 % 0.00 in
01:55 49.5 °F 48.4 °F 30.32 in Calm     96 % 0.00 in
02:03 49.7 °F 48.6 °F 30.33 in Calm     96 % 0.00 in
02:10 49.9 °F 48.8 °F 30.32 in Calm     96 % 0.00 in
02:18 49.9 °F 48.5 °F 30.33 in Calm     95 % 0.00 in
02:27 50.0 °F 48.9 °F 30.33 in Calm     96 % 0.00 in
02:36 50.3 °F 49.2 °F 30.32 in Calm     96 % 0.00 in
02:42 50.4 °F 49.3 °F 30.32 in Calm     96 % 0.00 in
02:47 50.5 °F 49.4 °F 30.32 in Calm     96 % 0.00 in
02:53 50.5 °F 49.4 °F 30.32 in Calm     96 % 0.00 in
03:03 50.5 °F 49.4 °F 30.31 in Calm     96 % 0.00 in
03:09 50.4 °F 49.0 °F 30.31 in Calm     95 % 0.00 in
03:36 50.4 °F 49.0 °F 30.32 in Calm     95 % 0.00 in
03:44 50.4 °F 49.0 °F 30.31 in Calm     95 % 0.00 in
03:50 50.4 °F 49.0 °F 30.32 in SSW 1.2 mph   95 % 0.00 in
03:57 50.4 °F 49.0 °F 30.32 in Calm     95 % 0.00 in
04:02 50.4 °F 49.0 °F 30.32 in Calm     95 % 0.00 in
04:18 50.4 °F 49.0 °F 30.31 in Calm     95 % 0.00 in
04:25 50.4 °F 49.0 °F 30.31 in Calm     95 % 0.00 in
04:32 50.3 °F 49.2 °F 30.32 in Calm     96 % 0.00 in
04:41 50.3 °F 49.2 °F 30.32 in Calm     96 % 0.00 in
04:59 50.3 °F 49.2 °F 30.32 in Calm     96 % 0.00 in
05:17 50.3 °F 49.2 °F 30.33 in Calm     96 % 0.00 in
05:23 50.3 °F 49.2 °F 30.33 in Calm     96 % 0.00 in
05:29 50.3 °F 49.2 °F 30.33 in Calm     96 % 0.00 in
05:34 50.3 °F 49.2 °F 30.33 in Calm     96 % 0.00 in
05:42 50.3 °F 49.2 °F 30.33 in Calm     96 % 0.00 in
06:03 50.2 °F 49.1 °F 30.34 in Calm     96 % 0.00 in
06:09 50.2 °F 49.1 °F 30.34 in SSE 1.2 mph   96 % 0.00 in
06:15 50.2 °F 49.1 °F 30.34 in Calm     96 % 0.00 in
06:21 50.2 °F 49.1 °F 30.34 in SSE 1.2 mph   96 % 0.00 in
06:28 50.2 °F 49.1 °F 30.34 in Calm     96 % 0.00 in
06:36 50.2 °F 49.1 °F 30.34 in Calm     96 % 0.00 in
06:42 50.2 °F 49.1 °F 30.35 in Calm     96 % 0.00 in
06:47 50.2 °F 49.1 °F 30.35 in Calm     96 % 0.00 in
06:54 50.2 °F 49.1 °F 30.35 in Calm     96 % 0.00 in
06:59 50.3 °F 49.2 °F 30.35 in Calm     96 % 0.00 in
07:07 50.3 °F 49.2 °F 30.36 in Calm     96 % 0.00 in
07:16 50.3 °F 49.2 °F 30.36 in SSE 1.2 mph 1.2 mph 96 % 0.00 in
07:21 50.3 °F 49.2 °F 30.36 in Calm     96 % 0.00 in
07:38 50.4 °F 49.3 °F 30.37 in ESE 1.2 mph 1.2 mph 96 % 0.00 in
07:46 50.4 °F 49.3 °F 30.37 in ESE 1.2 mph 1.2 mph 96 % 0.00 in
07:51 50.5 °F 49.4 °F 30.37 in SSE 1.2 mph 1.2 mph 96 % 0.00 in
07:56 50.5 °F 49.4 °F 30.37 in East 1.2 mph 1.2 mph 96 % 0.00 in
08:02 50.6 °F 49.5 °F 30.37 in Calm     96 % 0.00 in
08:14 50.7 °F 49.6 °F 30.38 in East 1.2 mph 1.2 mph 96 % 0.00 in
08:20 50.7 °F 49.6 °F 30.38 in East 1.2 mph 1.2 mph 96 % 0.00 in
08:26 50.9 °F 49.8 °F 30.38 in East 1.2 mph   96 % 0.00 in
08:34 51.0 °F 49.9 °F 30.39 in East 2.3 mph 2.3 mph 96 % 0.00 in
08:44 51.1 °F 50.0 °F 30.39 in East 1.2 mph 1.2 mph 96 % 0.00 in
08:51 51.2 °F 50.1 °F 30.39 in East 3.5 mph 3.5 mph 96 % 0.00 in
08:58 51.3 °F 50.2 °F 30.40 in East 2.0 mph 2.0 mph 96 % 0.00 in
09:09 51.5 °F 50.4 °F 30.40 in Calm     96 % 0.00 in
09:16 51.6 °F 50.5 °F 30.40 in East 1.2 mph 1.2 mph 96 % 0.00 in
09:38 52.2 °F 50.8 °F 30.41 in Calm     95 % 0.00 in
09:49 52.4 °F 51.0 °F 30.41 in East 1.2 mph 1.2 mph 95 % 0.00 in
09:55 52.6 °F 51.2 °F 30.41 in East 3.5 mph 3.5 mph 95 % 0.00 in
10:07 52.9 °F 51.2 °F 30.41 in East 1.2 mph 1.2 mph 94 % 0.00 in
10:13 53.2 °F 51.5 °F 30.41 in East 1.2 mph   94 % 0.00 in
10:21 53.4 °F 51.4 °F 30.40 in Calm     93 % 0.00 in
10:35 54.2 °F 51.9 °F 30.40 in East 2.3 mph 2.3 mph 92 % 0.00 in
10:43 54.9 °F 52.3 °F 30.39 in Calm     91 % 0.00 in
10:58 56.5 °F 53.0 °F 30.38 in Calm     88 % 0.00 in
11:12 58.2 °F 53.7 °F 30.37 in Calm     85 % 0.00 in
11:18 58.5 °F 53.7 °F 30.37 in ESE 2.3 mph 2.3 mph 84 % 0.00 in
11:23 58.5 °F 54.0 °F 30.37 in SSE 1.2 mph 1.2 mph 85 % 0.00 in
11:32 58.8 °F 54.0 °F 30.36 in Calm     84 % 0.00 in
11:45 58.9 °F 53.4 °F 30.35 in Calm     82 % 0.00 in
11:59 59.1 °F 53.6 °F 30.34 in WNW 1.0 mph 1.0 mph 82 % 0.00 in
12:04 59.1 °F 53.3 °F 30.34 in Calm   0.3 mph 81 % 0.00 in
12:09 59.3 °F 53.5 °F 30.33 in West 1.2 mph 1.2 mph 81 % 0.00 in
12:19 59.6 °F 53.8 °F 30.33 in WNW 1.2 mph 1.2 mph 81 % 0.00 in
12:26 59.5 °F 53.7 °F 30.32 in NW 1.2 mph 1.2 mph 81 % 0.00 in
12:38 59.7 °F 53.5 °F 30.32 in WNW 1.2 mph 1.2 mph 80 % 0.00 in
12:45 60.0 °F 54.2 °F 30.31 in NW 1.2 mph 1.2 mph 81 % 0.00 in
12:58 60.9 °F 54.0 °F 30.31 in North 3.0 mph 3.0 mph 78 % 0.00 in
13:05 61.1 °F 53.8 °F 30.31 in NW 1.2 mph 1.2 mph 77 % 0.00 in
13:12 61.8 °F 54.2 °F 30.30 in SSW 1.2 mph 1.2 mph 76 % 0.00 in
13:19 61.6 °F 54.0 °F 30.30 in WNW 1.2 mph 1.2 mph 76 % 0.00 in
13:27 62.0 °F 54.0 °F 30.30 in WNW 2.3 mph 2.3 mph 75 % 0.00 in
13:56 60.6 °F 52.6 °F 30.29 in WNW 3.5 mph 3.5 mph 75 % 0.00 in
14:12 60.6 °F 53.0 °F 30.29 in North 2.3 mph 2.3 mph 76 % 0.00 in
14:18 60.7 °F 52.7 °F 30.29 in NE 2.3 mph 2.3 mph 75 % 0.00 in
14:23 60.8 °F 53.2 °F 30.29 in NW 1.2 mph 1.2 mph 76 % 0.00 in
14:31 60.8 °F 52.8 °F 30.29 in NW 1.2 mph   75 % 0.00 in
14:44 60.9 °F 53.3 °F 30.29 in NW 1.2 mph 1.2 mph 76 % 0.00 in
14:49 60.8 °F 53.2 °F 30.29 in NW 2.0 mph 2.0 mph 76 % 0.00 in
14:58 60.7 °F 53.1 °F 30.29 in West 2.0 mph 2.0 mph 76 % 0.00 in
15:03 60.7 °F 53.4 °F 30.29 in Calm     77 % 0.00 in
15:40 60.0 °F 52.8 °F 30.29 in WNW 1.2 mph   77 % 0.00 in
15:46 59.9 °F 52.7 °F 30.29 in WNW 1.2 mph 1.2 mph 77 % 0.00 in
15:51 59.8 °F 52.6 °F 30.30 in West 1.2 mph   77 % 0.00 in
16:13 59.5 °F 52.3 °F 30.30 in NW 2.0 mph 2.0 mph 77 % 0.00 in
16:24 59.3 °F 52.8 °F 30.30 in NW 2.3 mph   79 % 0.00 in
16:29 59.2 °F 52.7 °F 30.30 in NW 1.2 mph 1.3 mph 79 % 0.00 in
16:49 59.0 °F 52.8 °F 30.30 in Calm     80 % 0.00 in
16:56 58.9 °F 52.7 °F 30.30 in NW 1.2 mph 1.2 mph 80 % 0.00 in
17:02 58.9 °F 52.7 °F 30.30 in NW 1.2 mph   80 % 0.00 in
17:12 58.8 °F 52.3 °F 30.30 in WNW 1.2 mph 1.2 mph 79 % 0.00 in
17:23 58.6 °F 52.4 °F 30.30 in Calm     80 % 0.00 in
17:29 58.4 °F 52.6 °F 30.30 in Calm     81 % 0.00 in
17:40 58.3 °F 52.8 °F 30.31 in WNW 1.2 mph 1.2 mph 82 % 0.00 in
17:50 58.2 °F 52.7 °F 30.31 in Calm   0.1 mph 82 % 0.00 in
17:59 58.1 °F 53.0 °F 30.31 in Calm     83 % 0.00 in
18:06 58.0 °F 52.9 °F 30.31 in North 1.2 mph 1.2 mph 83 % 0.00 in
18:11 58.0 °F 52.9 °F 30.31 in NNW 2.3 mph 2.3 mph 83 % 0.00 in
18:21 57.9 °F 52.8 °F 30.31 in Calm     83 % 0.00 in
18:35 57.6 °F 52.8 °F 30.31 in Calm     84 % 0.00 in
18:42 57.6 °F 52.8 °F 30.31 in NW 1.2 mph 1.2 mph 84 % 0.00 in
18:50 57.6 °F 52.8 °F 30.31 in NW 1.2 mph 1.2 mph 84 % 0.00 in
18:56 57.5 °F 52.7 °F 30.31 in NW 3.5 mph 3.5 mph 84 % 0.00 in
19:01 57.4 °F 52.6 °F 30.31 in NW 1.2 mph 1.2 mph 84 % 0.00 in
19:12 57.1 °F 52.3 °F 30.31 in Calm     84 % 0.00 in
19:27 56.9 °F 52.4 °F 30.31 in Calm     85 % 0.00 in
19:43 56.7 °F 52.2 °F 30.31 in Calm     85 % 0.00 in
20:03 56.5 °F 52.4 °F 30.31 in NNE 1.0 mph 1.0 mph 86 % 0.00 in
20:11 56.5 °F 52.4 °F 30.31 in Calm     86 % 0.00 in
20:20 56.4 °F 51.9 °F 30.31 in Calm     85 % 0.00 in
20:27 56.3 °F 51.8 °F 30.31 in Calm     85 % 0.00 in
20:32 56.2 °F 51.7 °F 30.31 in Calm     85 % 0.00 in
20:52 55.9 °F 51.8 °F 30.31 in Calm     86 % 0.00 in
21:13 55.6 °F 51.5 °F 30.31 in Calm     86 % 0.00 in
21:19 55.5 °F 51.4 °F 30.31 in Calm     86 % 0.00 in
21:35 54.8 °F 51.3 °F 30.31 in Calm     88 % 0.00 in
21:58 54.6 °F 51.1 °F 30.31 in Calm     88 % 0.00 in
22:03 54.2 °F 51.0 °F 30.30 in Calm     89 % 0.00 in
22:11 53.8 °F 50.9 °F 30.30 in Calm     90 % 0.00 in
22:17 53.7 °F 50.8 °F 30.30 in Calm     90 % 0.00 in
22:30 53.5 °F 50.6 °F 30.30 in Calm     90 % 0.00 in
22:36 53.4 °F 50.5 °F 30.29 in Calm     90 % 0.00 in
22:41 53.2 °F 50.3 °F 30.30 in Calm     90 % 0.00 in
22:55 52.0 °F 49.7 °F 30.29 in Calm     92 % 0.00 in
23:00 52.0 °F 49.7 °F 30.29 in Calm     92 % 0.00 in
23:14 52.0 °F 50.0 °F 30.29 in Calm     93 % 0.00 in
23:25 51.5 °F 49.5 °F 30.29 in NW 1.2 mph 1.2 mph 93 % 0.00 in
23:31 51.2 °F 49.2 °F 30.29 in WNW 1.0 mph   93 % 0.00 in
23:48 50.4 °F 48.7 °F 30.29 in NW 1.2 mph 1.2 mph 94 % 0.00 in
Park Place, Exeter, Tulare County, California, USA
Compliments of Weather Underground - 2 mb